createdAt,value
2023-04-16T00:01:10.700Z,97.12
2023-04-16T00:03:38.733Z,97.68
2023-04-16T00:06:07.166Z,97.07
2023-04-16T00:08:35.658Z,97.55
2023-04-16T00:11:03.911Z,97.15
2023-04-16T00:13:31.806Z,97.37
2023-04-16T00:16:01.124Z,97.37
2023-04-16T00:18:29.044Z,97.12
2023-04-16T00:20:56.845Z,97.35
2023-04-16T00:23:25.724Z,97.49
2023-04-16T00:25:54.072Z,97.20
2023-04-16T00:28:21.927Z,97.45
2023-04-16T00:30:50.040Z,97.09
2023-04-16T00:33:19.355Z,97.63
2023-04-16T00:35:47.971Z,97.58
2023-04-16T00:38:16.101Z,97.42
2023-04-16T00:40:43.992Z,97.61
2023-04-16T00:43:11.836Z,97.42
2023-04-16T00:45:39.830Z,96.86
2023-04-16T00:48:07.953Z,96.92
2023-04-16T00:50:37.102Z,97.12
2023-04-16T00:53:05.057Z,96.90
2023-04-16T00:55:33.143Z,97.28
2023-04-16T00:58:01.183Z,97.04
2023-04-16T01:00:29.200Z,96.85
2023-04-16T01:02:58.127Z,97.08
2023-04-16T01:05:26.108Z,97.27
2023-04-16T01:07:55.348Z,97.57
2023-04-16T01:10:23.349Z,96.77
2023-04-16T01:12:51.241Z,97.20
2023-04-16T01:15:19.283Z,96.76
2023-04-16T01:17:47.373Z,96.74
2023-04-16T01:20:15.496Z,96.99
2023-04-16T01:22:44.789Z,97.00
2023-04-16T01:25:15.453Z,96.78
2023-04-16T01:27:43.386Z,96.96
2023-04-16T01:30:11.703Z,97.27
2023-04-16T01:32:50.553Z,97.36
2023-04-16T01:35:19.004Z,97.24
2023-04-16T01:37:48.283Z,97.21
2023-04-16T01:40:16.217Z,97.29
2023-04-16T01:42:44.143Z,96.88
2023-04-16T01:45:12.457Z,96.95
2023-04-16T01:47:40.378Z,97.25
2023-04-16T01:50:09.175Z,96.94
2023-04-16T01:52:37.114Z,97.08
2023-04-16T01:55:07.207Z,97.19
2023-04-16T01:57:35.073Z,97.31
2023-04-16T02:00:04.474Z,97.13
2023-04-16T02:02:34.236Z,97.11
2023-04-16T02:05:02.413Z,97.15
2023-04-16T02:07:31.577Z,96.87
2023-04-16T02:09:59.489Z,96.81
2023-04-16T02:12:29.169Z,96.82
2023-04-16T02:14:57.265Z,96.56
2023-04-16T02:17:27.487Z,97.22
2023-04-16T02:20:10.147Z,97.19
2023-04-16T02:22:48.673Z,97.25
2023-04-16T02:25:19.518Z,96.76
2023-04-16T02:27:48.777Z,97.20
2023-04-16T02:30:30.748Z,96.81
2023-04-16T02:32:59.060Z,96.72
2023-04-16T02:35:27.650Z,96.71
2023-04-16T02:37:55.598Z,97.17
2023-04-16T02:40:23.720Z,97.13
2023-04-16T02:42:52.962Z,97.24
2023-04-16T02:45:21.890Z,97.01
2023-04-16T02:47:49.990Z,97.22
2023-04-16T02:50:18.188Z,97.09
2023-04-16T02:52:46.130Z,97.14
2023-04-16T02:55:14.076Z,97.36
2023-04-16T02:57:42.486Z,97.21
2023-04-16T03:00:12.927Z,97.16
2023-04-16T03:02:40.906Z,97.33
2023-04-16T03:05:11.821Z,97.20
2023-04-16T03:07:40.789Z,96.90
2023-04-16T03:10:09.972Z,96.78
2023-04-16T03:12:37.836Z,97.23
2023-04-16T03:15:08.722Z,97.24
2023-04-16T03:17:37.978Z,96.92
2023-04-16T03:20:07.390Z,96.87
2023-04-16T03:22:35.423Z,96.43
2023-04-16T03:25:03.267Z,96.63
2023-04-16T03:27:32.316Z,97.24
2023-04-16T03:30:00.278Z,97.08
2023-04-16T03:32:28.964Z,96.56
2023-04-16T03:34:58.475Z,96.59
2023-04-16T03:37:26.507Z,96.92
2023-04-16T03:39:54.435Z,96.65
2023-04-16T03:42:22.757Z,97.20
2023-04-16T03:44:50.895Z,96.87
2023-04-16T03:47:19.551Z,97.04
2023-04-16T03:49:48.811Z,97.04
2023-04-16T03:52:18.201Z,96.70
2023-04-16T03:54:46.077Z,97.03
2023-04-16T03:57:22.850Z,97.15
2023-04-16T03:59:50.976Z,97.35
2023-04-16T04:02:19.529Z,96.65
2023-04-16T04:04:47.759Z,96.79
2023-04-16T04:07:18.350Z,96.44
2023-04-16T04:09:46.272Z,96.77
2023-04-16T04:12:14.498Z,96.32
2023-04-16T04:14:44.075Z,96.53
2023-04-16T04:17:12.039Z,96.39
2023-04-16T04:19:47.171Z,96.44
2023-04-16T04:22:23.976Z,96.69
2023-04-16T04:24:53.952Z,96.37
2023-04-16T04:27:21.860Z,96.21
2023-04-16T04:29:49.712Z,96.60
2023-04-16T04:32:17.627Z,96.05
2023-04-16T04:34:46.620Z,96.51
2023-04-16T04:37:14.406Z,96.19
2023-04-16T04:39:43.613Z,96.09
2023-04-16T04:42:13.563Z,96.48
2023-04-16T04:44:41.824Z,96.13
2023-04-16T04:47:10.533Z,95.83
2023-04-16T04:49:40.775Z,96.54
2023-04-16T04:52:09.366Z,96.01
2023-04-16T04:54:37.256Z,95.80
2023-04-16T04:57:07.557Z,96.00
2023-04-16T04:59:37.516Z,96.16
2023-04-16T05:02:05.615Z,95.60
2023-04-16T05:04:33.521Z,95.84
2023-04-16T05:07:01.779Z,95.81
2023-04-16T05:09:29.696Z,95.71
2023-04-16T05:11:58.023Z,95.89
2023-04-16T05:14:27.236Z,95.68
2023-04-16T05:16:55.140Z,96.49
2023-04-16T05:19:23.261Z,96.51
2023-04-16T05:21:51.083Z,96.54
2023-04-16T05:24:18.919Z,96.38
2023-04-16T05:26:46.722Z,96.44
2023-04-16T05:29:14.580Z,97.16
2023-04-16T05:31:43.711Z,97.19
2023-04-16T05:34:11.662Z,96.80
2023-04-16T05:36:39.500Z,96.53
2023-04-16T05:39:07.721Z,97.05
2023-04-16T05:41:35.714Z,97.19
2023-04-16T05:44:03.723Z,96.95
2023-04-16T05:46:31.529Z,96.83
2023-04-16T05:49:00.862Z,96.91
2023-04-16T05:51:28.922Z,97.23
2023-04-16T05:53:56.728Z,97.15
2023-04-16T05:56:25.387Z,96.65
2023-04-16T05:58:53.222Z,96.99
2023-04-16T06:01:20.982Z,96.42
2023-04-16T06:03:48.947Z,96.57
2023-04-16T06:06:18.272Z,96.75
2023-04-16T06:08:46.336Z,96.72
2023-04-16T06:11:14.187Z,96.13
2023-04-16T06:13:43.689Z,96.03
2023-04-16T06:16:11.558Z,95.85
2023-04-16T06:18:39.437Z,96.00
2023-04-16T06:21:07.369Z,95.62
2023-04-16T06:23:36.581Z,95.84
2023-04-16T06:26:04.396Z,95.11
2023-04-16T06:28:32.282Z,95.34
2023-04-16T06:31:01.041Z,95.07
2023-04-16T06:33:28.977Z,94.96
2023-04-16T06:35:56.862Z,94.33
2023-04-16T06:38:24.804Z,94.39
2023-04-16T06:40:54.124Z,94.68
2023-04-16T06:43:22.006Z,94.18
2023-04-16T06:45:49.955Z,94.47
2023-04-16T06:48:17.795Z,93.97
2023-04-16T06:50:45.713Z,94.02
2023-04-16T06:53:13.719Z,94.46
2023-04-16T06:55:41.542Z,93.69
2023-04-16T06:58:10.715Z,94.34
2023-04-16T07:00:38.531Z,93.68
2023-04-16T07:03:06.563Z,93.68
2023-04-16T07:05:34.507Z,92.84
2023-04-16T07:08:02.381Z,93.01
2023-04-16T07:10:30.407Z,92.61
2023-04-16T07:12:58.302Z,92.29
2023-04-16T07:15:27.539Z,92.53
2023-04-16T07:17:55.766Z,92.79
2023-04-16T07:20:23.708Z,92.84
2023-04-16T07:22:51.608Z,93.31
2023-04-16T07:25:19.493Z,92.89
2023-04-16T07:27:47.307Z,93.19
2023-04-16T07:30:15.622Z,92.91
2023-04-16T07:32:45.051Z,92.39
2023-04-16T07:35:12.990Z,92.63
2023-04-16T07:37:41.344Z,92.67
2023-04-16T07:40:12.957Z,92.59
2023-04-16T07:42:40.905Z,91.88
2023-04-16T07:45:09.793Z,92.78
2023-04-16T07:47:37.689Z,92.35
2023-04-16T07:50:08.312Z,92.69
2023-04-16T07:52:37.197Z,93.17
2023-04-16T07:55:05.891Z,93.54
2023-04-16T07:57:35.748Z,92.61
2023-04-16T08:00:04.934Z,92.96
2023-04-16T08:02:41.236Z,93.59
2023-04-16T08:05:11.232Z,93.52
2023-04-16T08:07:39.247Z,93.41
2023-04-16T08:10:08.344Z,93.79
2023-04-16T08:12:36.420Z,92.95
2023-04-16T08:15:04.656Z,92.87
2023-04-16T08:17:34.405Z,93.28
2023-04-16T08:20:02.344Z,93.50
2023-04-16T08:22:31.566Z,93.43
2023-04-16T08:24:59.417Z,93.34
2023-04-16T08:27:27.344Z,93.62
2023-04-16T08:29:57.280Z,93.82
2023-04-16T08:32:25.836Z,93.25
2023-04-16T08:34:53.821Z,93.05
2023-04-16T08:37:21.598Z,93.92
2023-04-16T08:39:50.877Z,93.16
2023-04-16T08:42:24.705Z,93.20
2023-04-16T08:44:54.359Z,93.64
2023-04-16T08:47:23.671Z,93.15
2023-04-16T08:49:52.151Z,92.66
2023-04-16T08:52:20.957Z,92.93
2023-04-16T08:54:57.059Z,92.86
2023-04-16T08:57:25.441Z,91.77
2023-04-16T08:59:55.485Z,92.98
2023-04-16T09:02:23.949Z,92.67
2023-04-16T09:04:52.355Z,92.38
2023-04-16T09:07:20.846Z,92.16
2023-04-16T09:09:52.128Z,92.09
2023-04-16T09:12:20.504Z,92.69
2023-04-16T09:14:49.682Z,92.69
2023-04-16T09:17:17.883Z,92.56
2023-04-16T09:19:45.894Z,92.61
2023-04-16T09:22:13.735Z,92.88
2023-04-16T09:24:41.899Z,92.46
2023-04-16T09:27:12.195Z,90.38
2023-04-16T09:29:41.506Z,89.72
2023-04-16T09:32:10.733Z,89.73
2023-04-16T09:34:57.568Z,89.17
2023-04-16T09:37:26.022Z,88.64
2023-04-16T09:39:55.144Z,88.42
2023-04-16T09:42:25.562Z,88.11
2023-04-16T09:44:53.769Z,88.23
2023-04-16T09:47:22.453Z,88.29
2023-04-16T09:49:50.410Z,88.16
2023-04-16T09:52:20.046Z,88.38
2023-04-16T09:54:49.307Z,88.71
2023-04-16T09:57:20.933Z,89.45
2023-04-16T09:59:50.408Z,88.78
2023-04-16T10:02:18.552Z,88.75
2023-04-16T10:04:47.965Z,89.13
2023-04-16T10:07:16.357Z,88.92
2023-04-16T10:09:44.479Z,88.05
2023-04-16T10:12:13.416Z,87.93
2023-04-16T10:14:41.893Z,88.98
2023-04-16T10:17:11.480Z,88.11
2023-04-16T10:19:39.963Z,88.77
2023-04-16T10:22:07.819Z,88.34
2023-04-16T10:24:36.172Z,88.94
2023-04-16T10:27:04.034Z,88.72
2023-04-16T10:29:32.433Z,88.52
2023-04-16T10:32:01.079Z,87.89
2023-04-16T10:34:31.206Z,87.90
2023-04-16T10:36:59.208Z,87.50
2023-04-16T10:39:29.780Z,87.99
2023-04-16T10:42:08.866Z,88.64
2023-04-16T10:44:36.968Z,88.16
2023-04-16T10:47:12.094Z,86.92
2023-04-16T10:49:42.368Z,86.40
2023-04-16T10:52:12.438Z,85.87
2023-04-16T10:54:40.768Z,85.77
2023-04-16T10:57:10.699Z,85.70
2023-04-16T10:59:39.783Z,85.28
2023-04-16T11:02:09.525Z,85.72
2023-04-16T11:04:38.858Z,85.66
2023-04-16T11:07:16.390Z,85.37
2023-04-16T11:09:59.308Z,85.52
2023-04-16T11:12:29.061Z,85.26
2023-04-16T11:15:00.850Z,84.51
2023-04-16T11:17:30.736Z,84.45
2023-04-16T11:19:58.743Z,82.83
2023-04-16T11:22:28.182Z,82.38
2023-04-16T11:24:57.081Z,81.02
2023-04-16T11:27:25.468Z,80.76
2023-04-16T11:30:01.203Z,81.40
2023-04-16T11:32:29.418Z,82.79
2023-04-16T11:34:57.315Z,83.79
2023-04-16T11:37:34.950Z,84.92
2023-04-16T11:40:06.312Z,85.76
2023-04-16T11:42:36.958Z,85.06
2023-04-16T11:45:06.248Z,84.36
2023-04-16T11:47:45.993Z,84.56
2023-04-16T11:50:21.571Z,83.83
2023-04-16T11:52:52.296Z,83.93
2023-04-16T11:55:21.340Z,83.88
2023-04-16T11:57:49.736Z,83.54
2023-04-16T12:00:21.761Z,83.24
2023-04-16T12:02:54.231Z,81.90
2023-04-16T12:05:31.808Z,81.47
2023-04-16T12:08:02.208Z,81.28
2023-04-16T12:10:30.751Z,81.35
2023-04-16T12:13:11.682Z,81.29
2023-04-16T12:15:47.225Z,81.72
2023-04-16T12:18:16.062Z,82.14
2023-04-16T12:20:44.441Z,82.51
2023-04-16T12:23:24.049Z,83.31
2023-04-16T12:25:51.972Z,83.37
2023-04-16T12:28:28.998Z,83.81
2023-04-16T12:30:57.539Z,84.10
2023-04-16T12:33:25.549Z,83.40
2023-04-16T12:35:53.400Z,84.36
2023-04-16T12:38:24.499Z,84.54
2023-04-16T12:40:52.772Z,84.26
2023-04-16T12:43:21.904Z,84.40
2023-04-16T12:45:49.843Z,84.76
2023-04-16T12:48:17.682Z,84.89
2023-04-16T12:50:45.982Z,85.21
2023-04-16T12:53:13.840Z,85.54
2023-04-16T12:55:43.046Z,85.97
2023-04-16T12:58:12.572Z,86.52
2023-04-16T13:00:40.888Z,86.80
2023-04-16T13:03:09.241Z,86.78
2023-04-16T13:05:37.182Z,88.05
2023-04-16T13:08:05.262Z,88.39
2023-04-16T13:10:33.091Z,88.71
2023-04-16T13:13:02.368Z,89.00
2023-04-16T13:15:30.277Z,89.17
2023-04-16T13:17:58.246Z,89.26
2023-04-16T13:20:26.181Z,88.66
2023-04-16T13:22:54.922Z,88.21
2023-04-16T13:25:22.776Z,87.80
2023-04-16T13:27:50.823Z,87.43
2023-04-16T13:30:20.512Z,86.36
2023-04-16T13:32:48.427Z,86.99
2023-04-16T13:35:16.334Z,86.23
2023-04-16T13:37:44.119Z,85.36
2023-04-16T13:40:12.462Z,84.80
2023-04-16T13:42:40.762Z,84.31
2023-04-16T13:45:09.875Z,84.38
2023-04-16T13:47:40.186Z,83.24
2023-04-16T13:50:08.638Z,83.48
2023-04-16T13:52:36.558Z,84.21
2023-04-16T13:55:04.767Z,83.15
2023-04-16T13:57:32.991Z,83.69
2023-04-16T14:00:00.904Z,83.81
2023-04-16T14:02:28.906Z,83.09
2023-04-16T14:04:58.143Z,82.57
2023-04-16T14:07:27.210Z,81.18
2023-04-16T14:09:55.325Z,80.28
2023-04-16T14:12:23.240Z,79.15
2023-04-16T14:14:51.150Z,78.98
2023-04-16T14:17:19.121Z,77.94
2023-04-16T14:19:47.086Z,76.52
2023-04-16T14:22:17.795Z,75.97
2023-04-16T14:24:45.698Z,75.67
2023-04-16T14:27:13.706Z,76.62
2023-04-16T14:29:41.999Z,78.09
2023-04-16T14:32:09.966Z,78.64
2023-04-16T14:34:37.944Z,79.72
2023-04-16T14:37:05.823Z,79.92
2023-04-16T14:39:36.274Z,79.51
2023-04-16T14:42:04.384Z,80.02
2023-04-16T14:44:32.197Z,81.57
2023-04-16T14:47:00.086Z,82.80
2023-04-16T14:49:27.908Z,83.22
2023-04-16T14:51:56.540Z,83.55
2023-04-16T14:54:24.576Z,83.44
2023-04-16T14:56:53.764Z,84.06
2023-04-16T14:59:21.569Z,85.40
2023-04-16T15:01:49.521Z,85.53
2023-04-16T15:04:17.689Z,86.31
2023-04-16T15:06:46.659Z,85.85
2023-04-16T15:09:14.742Z,86.49
2023-04-16T15:11:42.698Z,87.25
2023-04-16T15:14:11.991Z,86.81
2023-04-16T15:16:40.051Z,86.86
2023-04-16T15:19:08.089Z,86.87
2023-04-16T15:21:35.996Z,86.97
2023-04-16T15:24:03.994Z,86.36
2023-04-16T15:26:32.003Z,86.67
2023-04-16T15:28:59.854Z,86.38
2023-04-16T15:31:29.264Z,86.11
2023-04-16T15:33:57.179Z,85.54
2023-04-16T15:36:24.963Z,86.35
2023-04-16T15:38:52.941Z,86.51
2023-04-16T15:41:20.814Z,86.45
2023-04-16T15:43:48.685Z,86.40
2023-04-16T15:46:16.608Z,85.90
2023-04-16T15:48:46.004Z,86.07
2023-04-16T15:51:13.913Z,86.40
2023-04-16T15:53:42.187Z,86.26
2023-04-16T15:56:10.001Z,85.97
2023-04-16T15:58:37.896Z,86.21
2023-04-16T16:01:05.792Z,86.37
2023-04-16T16:03:35.811Z,86.34
2023-04-16T16:06:05.587Z,86.22
2023-04-16T16:08:35.868Z,86.40
2023-04-16T16:11:04.033Z,86.49
2023-04-16T16:13:32.055Z,86.33
2023-04-16T16:15:59.918Z,86.52
2023-04-16T16:18:27.838Z,86.57
2023-04-16T16:20:57.775Z,86.94
2023-04-16T16:23:27.144Z,86.73
2023-04-16T16:25:55.319Z,87.19
2023-04-16T16:28:24.144Z,87.69
2023-04-16T16:30:54.603Z,87.54
2023-04-16T16:33:22.545Z,87.79
2023-04-16T16:35:50.501Z,87.63
2023-04-16T16:38:18.631Z,87.82
2023-04-16T16:40:47.863Z,87.00
2023-04-16T16:43:16.303Z,86.68
2023-04-16T16:45:44.245Z,86.76
2023-04-16T16:48:12.159Z,87.05
2023-04-16T16:50:40.018Z,87.60
2023-04-16T16:53:07.861Z,88.21
2023-04-16T16:55:36.043Z,87.80
2023-04-16T16:58:05.371Z,87.94
2023-04-16T17:00:33.313Z,88.77
2023-04-16T17:03:01.359Z,88.80
2023-04-16T17:05:29.390Z,89.13
2023-04-16T17:07:57.214Z,89.73
2023-04-16T17:10:25.081Z,89.85
2023-04-16T17:12:52.959Z,89.05
2023-04-16T17:15:22.303Z,88.88
2023-04-16T17:17:51.341Z,88.58
2023-04-16T17:20:19.941Z,89.66
2023-04-16T17:22:47.872Z,89.36
2023-04-16T17:25:15.934Z,90.13
2023-04-16T17:27:43.789Z,90.36
2023-04-16T17:30:12.109Z,90.15
2023-04-16T17:32:41.382Z,90.50
2023-04-16T17:35:10.856Z,90.22
2023-04-16T17:37:38.852Z,90.61
2023-04-16T17:40:09.572Z,91.51
2023-04-16T17:42:37.645Z,92.02
2023-04-16T17:45:06.195Z,90.96
2023-04-16T17:47:35.617Z,91.21
2023-04-16T17:50:05.579Z,91.21
2023-04-16T17:52:33.504Z,91.51
2023-04-16T17:55:01.622Z,91.01
2023-04-16T17:57:29.756Z,90.56
2023-04-16T17:59:58.173Z,90.79
2023-04-16T18:02:26.230Z,91.28
2023-04-16T18:04:54.229Z,90.20
2023-04-16T18:07:23.539Z,91.50
2023-04-16T18:09:51.341Z,91.13
2023-04-16T18:12:19.193Z,91.59
2023-04-16T18:14:47.128Z,91.60
2023-04-16T18:17:15.479Z,92.86
2023-04-16T18:19:44.248Z,92.92
2023-04-16T18:22:13.150Z,92.34
2023-04-16T18:24:42.364Z,95.23
2023-04-16T18:27:10.346Z,96.06
2023-04-16T18:29:40.016Z,95.62
2023-04-16T18:32:11.712Z,95.01
2023-04-16T18:34:40.088Z,94.62
2023-04-16T18:37:08.097Z,94.44
2023-04-16T18:39:36.565Z,94.28
2023-04-16T18:42:06.142Z,92.97
2023-04-16T18:44:34.007Z,93.01
2023-04-16T18:47:01.985Z,92.80
2023-04-16T18:49:29.933Z,92.86
2023-04-16T18:51:57.743Z,92.79
2023-04-16T18:54:25.703Z,92.80
2023-04-16T18:56:53.599Z,93.30
2023-04-16T18:59:22.739Z,93.33
2023-04-16T19:01:50.744Z,92.79
2023-04-16T19:04:18.821Z,92.52
2023-04-16T19:06:48.343Z,92.58
2023-04-16T19:09:16.946Z,92.81
2023-04-16T19:11:45.301Z,92.50
2023-04-16T19:14:13.126Z,92.43
2023-04-16T19:16:42.574Z,92.37
2023-04-16T19:19:10.544Z,92.83
2023-04-16T19:21:38.819Z,92.17
2023-04-16T19:24:07.355Z,92.01
2023-04-16T19:26:35.139Z,92.33
2023-04-16T19:29:03.388Z,92.66
2023-04-16T19:31:31.313Z,92.41
2023-04-16T19:34:00.549Z,93.06
2023-04-16T19:36:28.399Z,92.63
2023-04-16T19:38:56.265Z,92.86
2023-04-16T19:41:24.249Z,92.58
2023-04-16T19:43:52.120Z,93.04
2023-04-16T19:46:20.067Z,92.47
2023-04-16T19:48:48.238Z,93.22
2023-04-16T19:51:18.277Z,93.26
2023-04-16T19:53:46.510Z,93.36
2023-04-16T19:56:15.911Z,92.94
2023-04-16T19:58:43.844Z,92.83
2023-04-16T20:01:11.845Z,92.70
2023-04-16T20:03:39.794Z,92.74
2023-04-16T20:06:07.845Z,93.06
2023-04-16T20:08:37.124Z,92.96
2023-04-16T20:11:04.899Z,93.39
2023-04-16T20:13:32.761Z,92.81
2023-04-16T20:16:01.159Z,92.60
2023-04-16T20:18:29.203Z,92.79
2023-04-16T20:20:57.004Z,92.94
2023-04-16T20:23:24.827Z,92.65
2023-04-16T20:25:54.079Z,92.70
2023-04-16T20:28:22.132Z,92.73
2023-04-16T20:30:50.882Z,92.01
2023-04-16T20:33:18.930Z,91.48
2023-04-16T20:35:47.028Z,92.21
2023-04-16T20:38:14.902Z,92.45
2023-04-16T20:40:44.964Z,92.69
2023-04-16T20:43:14.335Z,92.43
2023-04-16T20:45:46.049Z,93.30
2023-04-16T20:48:13.957Z,92.62
2023-04-16T20:50:41.886Z,93.06
2023-04-16T20:53:09.769Z,93.18
2023-04-16T20:55:37.671Z,93.15
2023-04-16T20:58:05.472Z,93.01
2023-04-16T21:00:34.657Z,93.02
2023-04-16T21:03:02.694Z,93.51
2023-04-16T21:05:30.862Z,93.41
2023-04-16T21:07:58.709Z,93.54
2023-04-16T21:10:26.482Z,92.87
2023-04-16T21:12:54.311Z,93.33
2023-04-16T21:15:22.160Z,92.75
2023-04-16T21:17:51.400Z,93.05
2023-04-16T21:20:19.556Z,93.08
2023-04-16T21:22:47.381Z,93.27
2023-04-16T21:25:15.344Z,92.92
2023-04-16T21:27:43.870Z,93.28
2023-04-16T21:30:12.919Z,93.60
2023-04-16T21:32:40.862Z,94.08
2023-04-16T21:35:10.593Z,93.93
2023-04-16T21:37:38.474Z,94.23
2023-04-16T21:40:07.532Z,93.67
2023-04-16T21:42:44.514Z,93.73
2023-04-16T21:45:14.406Z,93.84
2023-04-16T21:47:42.217Z,94.47
2023-04-16T21:50:12.648Z,94.38
2023-04-16T21:52:46.215Z,94.40
2023-04-16T21:55:14.599Z,94.24
2023-04-16T21:57:42.462Z,93.70
2023-04-16T22:00:13.884Z,94.67
2023-04-16T22:02:42.789Z,94.83
2023-04-16T22:05:12.650Z,94.82
2023-04-16T22:07:40.729Z,94.47
2023-04-16T22:10:10.174Z,94.46
2023-04-16T22:12:39.527Z,94.62
2023-04-16T22:15:09.020Z,94.73
2023-04-16T22:17:36.992Z,94.38
2023-04-16T22:20:08.469Z,94.45
2023-04-16T22:22:37.820Z,94.76
2023-04-16T22:25:06.521Z,94.64
2023-04-16T22:27:34.526Z,94.56
2023-04-16T22:30:02.663Z,94.11
2023-04-16T22:32:31.471Z,94.34
2023-04-16T22:34:59.642Z,94.67
2023-04-16T22:37:27.625Z,95.10
2023-04-16T22:39:56.790Z,94.82
2023-04-16T22:42:24.848Z,95.19
2023-04-16T22:44:52.642Z,95.55
2023-04-16T22:47:21.372Z,95.49
2023-04-16T22:49:49.547Z,95.36
2023-04-16T22:52:17.391Z,95.05
2023-04-16T22:54:45.261Z,95.21
2023-04-16T22:57:17.349Z,95.57
2023-04-16T22:59:45.241Z,94.98
2023-04-16T23:02:13.525Z,95.29
2023-04-16T23:04:41.738Z,95.12
2023-04-16T23:07:09.578Z,94.82
2023-04-16T23:09:37.435Z,95.17
2023-04-16T23:12:05.812Z,94.85
2023-04-16T23:14:35.440Z,94.63
2023-04-16T23:17:03.578Z,94.40
2023-04-16T23:19:31.804Z,94.75
2023-04-16T23:21:59.728Z,94.50
2023-04-16T23:24:27.573Z,94.25
2023-04-16T23:26:55.966Z,94.21
2023-04-16T23:29:23.813Z,94.15
2023-04-16T23:31:53.116Z,94.46
2023-04-16T23:34:21.074Z,93.98
2023-04-16T23:36:49.000Z,93.73
2023-04-16T23:39:16.998Z,94.04
2023-04-16T23:41:44.845Z,93.97
2023-04-16T23:44:12.934Z,93.07
2023-04-16T23:46:41.178Z,93.55
2023-04-16T23:49:10.770Z,93.48
2023-04-16T23:51:38.920Z,93.08
2023-04-16T23:54:06.865Z,92.95
2023-04-16T23:56:34.778Z,92.91
2023-04-16T23:59:02.701Z,93.09
